createdAt,value
2017-12-06T00:00:35.237Z,101092.50
2017-12-06T00:03:01.179Z,101085.64
2017-12-06T00:05:27.115Z,101096.45
2017-12-06T00:07:53.075Z,101093.31
2017-12-06T00:10:19.000Z,101085.55
2017-12-06T00:12:44.927Z,101094.15
2017-12-06T00:15:10.859Z,101096.55
2017-12-06T00:17:36.779Z,101108.39
2017-12-06T00:20:02.715Z,101097.23
2017-12-06T00:22:28.660Z,101100.50
2017-12-06T00:24:54.587Z,101105.83
2017-12-06T00:27:20.522Z,101099.19
2017-12-06T00:29:46.478Z,101098.27
2017-12-06T00:32:12.408Z,101089.50
2017-12-06T00:34:38.403Z,101087.50
2017-12-06T00:37:04.411Z,101089.08
2017-12-06T00:39:30.453Z,101097.20
2017-12-06T00:41:56.388Z,101086.72
2017-12-06T00:44:22.321Z,101092.11
2017-12-06T00:46:48.251Z,101086.33
2017-12-06T00:49:14.190Z,101091.16
2017-12-06T00:51:40.126Z,101085.85
2017-12-06T00:54:06.069Z,101081.94
2017-12-06T00:56:32.015Z,101081.20
2017-12-06T00:58:57.963Z,101079.17
2017-12-06T01:01:23.893Z,101073.30
2017-12-06T01:03:49.811Z,101068.88
2017-12-06T01:06:15.765Z,101071.09
2017-12-06T01:08:41.694Z,101081.16
2017-12-06T01:11:07.679Z,101075.87
2017-12-06T01:13:33.727Z,101077.08
2017-12-06T01:15:59.663Z,101086.73
2017-12-06T01:18:25.624Z,101086.98
2017-12-06T01:20:51.584Z,101089.45
2017-12-06T01:23:17.543Z,101084.50
2017-12-06T01:25:43.481Z,101079.20
2017-12-06T01:28:09.415Z,101079.72
2017-12-06T01:30:35.355Z,101092.76
2017-12-06T01:33:01.432Z,101090.02
2017-12-06T01:35:27.358Z,101090.94
2017-12-06T01:37:53.305Z,101084.72
2017-12-06T01:40:19.234Z,101086.03
2017-12-06T01:42:45.159Z,101080.47
2017-12-06T01:45:11.091Z,101083.95
2017-12-06T01:47:37.007Z,101081.86
2017-12-06T01:50:02.953Z,101070.83
2017-12-06T01:52:28.880Z,101079.73
2017-12-06T01:54:54.809Z,101074.30
2017-12-06T01:57:20.761Z,101073.27
2017-12-06T01:59:46.689Z,101068.48
2017-12-06T02:02:12.629Z,101067.80
2017-12-06T02:04:38.571Z,101063.92
2017-12-06T02:07:04.513Z,101059.09
2017-12-06T02:09:30.447Z,101059.95
2017-12-06T02:11:56.373Z,101063.78
2017-12-06T02:14:22.304Z,101065.09
2017-12-06T02:16:48.234Z,101062.58
2017-12-06T02:19:14.361Z,101056.67
2017-12-06T02:21:40.284Z,101056.63
2017-12-06T02:24:06.219Z,101058.31
2017-12-06T02:26:32.150Z,101056.45
2017-12-06T02:28:58.089Z,101058.92
2017-12-06T02:31:24.019Z,101060.74
2017-12-06T02:33:49.953Z,101060.84
2017-12-06T02:36:15.884Z,101064.06
2017-12-06T02:38:41.813Z,101054.72
2017-12-06T02:41:07.753Z,101050.20
2017-12-06T02:43:33.685Z,101053.33
2017-12-06T02:45:59.611Z,101045.03
2017-12-06T02:48:25.534Z,101044.42
2017-12-06T02:50:51.472Z,101040.98
2017-12-06T02:53:17.406Z,101049.11
2017-12-06T02:55:43.360Z,101038.45
2017-12-06T02:58:09.313Z,101036.61
2017-12-06T03:00:35.245Z,101035.73
2017-12-06T03:03:01.183Z,101039.47
2017-12-06T03:05:27.117Z,101032.64
2017-12-06T03:07:53.059Z,101022.99
2017-12-06T03:10:19.038Z,101021.30
2017-12-06T03:12:44.959Z,101024.30
2017-12-06T03:15:10.887Z,101027.64
2017-12-06T03:17:36.806Z,101028.55
2017-12-06T03:20:02.758Z,101021.30
2017-12-06T03:22:28.695Z,101020.83
2017-12-06T03:24:54.628Z,101026.66
2017-12-06T03:27:20.560Z,101028.56
2017-12-06T03:29:46.506Z,101030.13
2017-12-06T03:32:12.449Z,101023.53
2017-12-06T03:34:38.370Z,101023.80
2017-12-06T03:37:04.309Z,101019.95
2017-12-06T03:39:30.250Z,101024.92
2017-12-06T03:41:56.210Z,101026.85
2017-12-06T03:44:22.163Z,101022.88
2017-12-06T03:46:48.113Z,101025.02
2017-12-06T03:49:14.225Z,101024.50
2017-12-06T03:51:40.628Z,101027.64
2017-12-06T03:54:06.579Z,101027.77
2017-12-06T03:56:32.517Z,101025.91
2017-12-06T03:58:58.489Z,101022.35
2017-12-06T04:01:24.431Z,101017.75
2017-12-06T04:03:50.383Z,101018.92
2017-12-06T04:06:16.329Z,101024.05
2017-12-06T04:08:42.278Z,101009.14
2017-12-06T04:11:08.217Z,101011.97
2017-12-06T04:13:34.155Z,101016.22
2017-12-06T04:16:00.079Z,101012.75
2017-12-06T04:18:26.014Z,101010.98
2017-12-06T04:20:51.949Z,100997.98
2017-12-06T04:23:17.898Z,100997.31
2017-12-06T04:25:43.859Z,100994.78
2017-12-06T04:28:09.789Z,100999.25
2017-12-06T04:30:35.733Z,101001.41
2017-12-06T04:33:01.712Z,100995.36
2017-12-06T04:35:27.645Z,100991.88
2017-12-06T04:37:53.573Z,100987.02
2017-12-06T04:40:19.499Z,100993.59
2017-12-06T04:42:45.435Z,100988.34
2017-12-06T04:45:11.459Z,100989.86
2017-12-06T04:47:37.399Z,100993.24
2017-12-06T04:50:03.338Z,100987.86
2017-12-06T04:52:29.322Z,100983.52
2017-12-06T04:54:55.348Z,100980.13
2017-12-06T04:57:21.297Z,100977.36
2017-12-06T04:59:47.231Z,100975.97
2017-12-06T05:02:13.203Z,100977.00
2017-12-06T05:04:39.148Z,100969.11
2017-12-06T05:07:05.103Z,100960.34
2017-12-06T05:09:31.031Z,100963.98
2017-12-06T05:11:56.971Z,100966.94
2017-12-06T05:14:22.909Z,100960.74
2017-12-06T05:16:48.835Z,100965.56
2017-12-06T05:19:14.807Z,100974.07
2017-12-06T05:21:40.759Z,100970.64
2017-12-06T05:24:06.691Z,100970.19
2017-12-06T05:26:32.643Z,100975.55
2017-12-06T05:28:58.611Z,100980.41
2017-12-06T05:31:24.547Z,100976.95
2017-12-06T05:33:50.485Z,100983.45
2017-12-06T05:36:16.450Z,100979.80
2017-12-06T05:38:42.388Z,100988.73
2017-12-06T05:41:08.330Z,100980.88
2017-12-06T05:43:34.265Z,100988.53
2017-12-06T05:46:00.219Z,100984.16
2017-12-06T05:48:26.167Z,100987.29
2017-12-06T05:50:52.172Z,100989.78
2017-12-06T05:53:18.100Z,100986.81
2017-12-06T05:55:44.023Z,100992.39
2017-12-06T05:58:09.943Z,100989.14
2017-12-06T06:00:35.889Z,100990.14
2017-12-06T06:03:01.833Z,100992.30
2017-12-06T06:05:27.763Z,100997.61
2017-12-06T06:07:53.717Z,100986.77
2017-12-06T06:10:19.667Z,100984.73
2017-12-06T06:12:45.589Z,100978.56
2017-12-06T06:15:11.527Z,100985.94
2017-12-06T06:17:37.457Z,100985.94
2017-12-06T06:20:03.407Z,100975.80
2017-12-06T06:22:29.370Z,100976.61
2017-12-06T06:24:55.323Z,100980.09
2017-12-06T06:27:21.289Z,100982.20
2017-12-06T06:29:47.235Z,100981.94
2017-12-06T06:32:13.183Z,100976.27
2017-12-06T06:34:39.119Z,100978.44
2017-12-06T06:37:05.052Z,100986.45
2017-12-06T06:39:30.993Z,100980.11
2017-12-06T06:41:56.946Z,100986.24
2017-12-06T06:44:22.879Z,100986.88
2017-12-06T06:46:48.820Z,100991.43
2017-12-06T06:49:14.751Z,100993.22
2017-12-06T06:51:40.675Z,100993.23
2017-12-06T06:54:06.623Z,101000.46
2017-12-06T06:56:32.569Z,100987.79
2017-12-06T06:58:58.513Z,100986.68
2017-12-06T07:01:24.463Z,100994.75
2017-12-06T07:03:50.396Z,100987.95
2017-12-06T07:06:16.333Z,100988.05
2017-12-06T07:08:42.253Z,100992.87
2017-12-06T07:11:08.188Z,100989.05
2017-12-06T07:13:34.123Z,100985.02
2017-12-06T07:16:00.070Z,100979.49
2017-12-06T07:18:26.017Z,100985.00
2017-12-06T07:20:51.973Z,100982.63
2017-12-06T07:23:17.923Z,100986.00
2017-12-06T07:25:43.852Z,100987.85
2017-12-06T07:28:09.801Z,100989.69
2017-12-06T07:30:35.730Z,100994.81
2017-12-06T07:33:01.674Z,100996.09
2017-12-06T07:35:27.610Z,100993.37
2017-12-06T07:37:53.534Z,100994.78
2017-12-06T07:40:19.471Z,100999.23
2017-12-06T07:42:45.404Z,100994.58
2017-12-06T07:45:11.351Z,101004.50
2017-12-06T07:47:37.281Z,100999.63
2017-12-06T07:50:03.213Z,101006.92
2017-12-06T07:52:29.154Z,101002.95
2017-12-06T07:54:55.087Z,101007.45
2017-12-06T07:57:21.038Z,101012.15
2017-12-06T07:59:46.979Z,101015.00
2017-12-06T08:02:12.938Z,101009.78
2017-12-06T08:04:38.871Z,101020.56
2017-12-06T08:07:04.793Z,101022.01
2017-12-06T08:09:30.743Z,101012.15
2017-12-06T08:11:56.686Z,101025.16
2017-12-06T08:14:22.635Z,101024.38
2017-12-06T08:16:48.558Z,101029.41
2017-12-06T08:19:14.485Z,101034.53
2017-12-06T08:21:40.505Z,101025.34
2017-12-06T08:24:06.437Z,101029.56
2017-12-06T08:26:32.397Z,101033.91
2017-12-06T08:28:58.351Z,101023.31
2017-12-06T08:31:24.291Z,101026.59
2017-12-06T08:33:50.224Z,101021.19
2017-12-06T08:36:16.142Z,101018.97
2017-12-06T08:38:42.113Z,101013.93
2017-12-06T08:41:08.056Z,101010.73
2017-12-06T08:43:34.009Z,101012.69
2017-12-06T08:45:59.956Z,101011.61
2017-12-06T08:48:25.951Z,101014.89
2017-12-06T08:50:51.917Z,101025.45
2017-12-06T08:53:17.892Z,101026.45
2017-12-06T08:55:43.829Z,101029.61
2017-12-06T08:58:09.789Z,101036.86
2017-12-06T09:00:35.712Z,101035.89
2017-12-06T09:03:01.670Z,101030.71
2017-12-06T09:05:27.583Z,101038.74
2017-12-06T09:07:53.547Z,101032.16
2017-12-06T09:10:19.521Z,101032.36
2017-12-06T09:12:45.476Z,101028.25
2017-12-06T09:15:11.423Z,101034.48
2017-12-06T09:17:37.357Z,101033.63
2017-12-06T09:20:03.281Z,101034.58
2017-12-06T09:22:29.245Z,101030.81
2017-12-06T09:24:55.171Z,101040.34
2017-12-06T09:27:21.119Z,101030.19
2017-12-06T09:29:47.065Z,101034.83
2017-12-06T09:32:13.015Z,101032.74
2017-12-06T09:34:39.007Z,101032.90
2017-12-06T09:37:04.966Z,101031.59
2017-12-06T09:39:30.913Z,101041.51
2017-12-06T09:41:56.851Z,101036.38
2017-12-06T09:44:22.807Z,101046.42
2017-12-06T09:46:48.729Z,101032.36
2017-12-06T09:49:14.659Z,101040.23
2017-12-06T09:51:40.587Z,101045.89
2017-12-06T09:54:06.513Z,101040.16
2017-12-06T09:56:32.472Z,101038.80
2017-12-06T09:58:58.417Z,101033.13
2017-12-06T10:01:24.354Z,101036.61
2017-12-06T10:03:50.325Z,101038.20
2017-12-06T10:06:16.251Z,101040.72
2017-12-06T10:08:42.321Z,101040.25
2017-12-06T10:11:08.292Z,101042.03
2017-12-06T10:13:34.235Z,101034.73
2017-12-06T10:16:00.173Z,101037.25
2017-12-06T10:18:26.107Z,101031.03
2017-12-06T10:20:52.124Z,101027.19
2017-12-06T10:23:18.047Z,101021.70
2017-12-06T10:25:44.020Z,101030.70
2017-12-06T10:28:09.955Z,101021.75
2017-12-06T10:30:35.879Z,101023.73
2017-12-06T10:33:01.814Z,101013.10
2017-12-06T10:35:27.759Z,101012.22
2017-12-06T10:37:53.736Z,101013.92
2017-12-06T10:40:19.694Z,101011.59
2017-12-06T10:42:45.627Z,101007.01
2017-12-06T10:45:11.573Z,101008.17
2017-12-06T10:47:37.511Z,101005.06
2017-12-06T10:50:03.445Z,101000.94
2017-12-06T10:52:29.387Z,101003.92
2017-12-06T10:54:55.329Z,101002.14
2017-12-06T10:57:21.260Z,101006.06
2017-12-06T10:59:47.223Z,101003.20
2017-12-06T11:02:13.155Z,100993.52
2017-12-06T11:04:39.101Z,100996.80
2017-12-06T11:07:05.047Z,100995.79
2017-12-06T11:09:30.979Z,101000.84
2017-12-06T11:11:56.921Z,100989.31
2017-12-06T11:14:22.851Z,100986.66
2017-12-06T11:16:48.781Z,100978.69
2017-12-06T11:19:14.746Z,100975.69
2017-12-06T11:21:40.697Z,100980.08
2017-12-06T11:24:06.652Z,100986.00
2017-12-06T11:26:32.597Z,100984.49
2017-12-06T11:28:58.542Z,100985.28
2017-12-06T11:31:24.475Z,100997.56
2017-12-06T11:33:50.418Z,100993.47
2017-12-06T11:36:16.359Z,100985.75
2017-12-06T11:38:42.278Z,100984.61
2017-12-06T11:41:08.229Z,100977.75
2017-12-06T11:43:34.175Z,100977.22
2017-12-06T11:46:00.099Z,100980.93
2017-12-06T11:48:26.051Z,100980.42
2017-12-06T11:50:51.981Z,100974.48
2017-12-06T11:53:17.912Z,100969.52
2017-12-06T11:55:43.858Z,100967.19
2017-12-06T11:58:09.795Z,100965.06
2017-12-06T12:00:35.739Z,100976.18
2017-12-06T12:03:01.681Z,100965.31
2017-12-06T12:05:27.665Z,100964.58
2017-12-06T12:07:53.603Z,100969.23
2017-12-06T12:10:19.556Z,100963.42
2017-12-06T12:12:45.737Z,100959.03
2017-12-06T12:15:11.667Z,100959.34
2017-12-06T12:17:37.606Z,100961.47
2017-12-06T12:20:03.551Z,100967.01
2017-12-06T12:22:29.486Z,100955.51
2017-12-06T12:24:55.437Z,100955.68
2017-12-06T12:27:21.395Z,100962.10
2017-12-06T12:29:47.315Z,100962.28
2017-12-06T12:32:13.239Z,100958.89
2017-12-06T12:34:39.219Z,100960.48
2017-12-06T12:37:05.169Z,100958.62
2017-12-06T12:39:31.103Z,100957.73
2017-12-06T12:41:57.056Z,100952.66
2017-12-06T12:44:23.003Z,100957.16
2017-12-06T12:46:48.959Z,100962.66
2017-12-06T12:49:14.890Z,100957.93
2017-12-06T12:51:40.854Z,100957.88
2017-12-06T12:54:06.803Z,100959.18
2017-12-06T12:56:32.751Z,100962.20
2017-12-06T12:58:58.697Z,100957.17
2017-12-06T13:01:24.632Z,100962.33
2017-12-06T13:03:50.562Z,100956.34
2017-12-06T13:06:16.499Z,100950.86
2017-12-06T13:08:42.443Z,100955.22
2017-12-06T13:11:08.467Z,100936.89
2017-12-06T13:13:34.405Z,100945.59
2017-12-06T13:16:00.342Z,100943.77
2017-12-06T13:18:26.267Z,100944.23
2017-12-06T13:20:52.211Z,100946.58
2017-12-06T13:23:18.165Z,100936.36
2017-12-06T13:25:44.087Z,100935.98
2017-12-06T13:28:10.011Z,100933.96
2017-12-06T13:30:35.939Z,100937.85
2017-12-06T13:33:01.859Z,100929.60
2017-12-06T13:35:27.794Z,100931.63
2017-12-06T13:37:53.718Z,100931.71
2017-12-06T13:40:19.689Z,100929.91
2017-12-06T13:42:45.639Z,100934.58
2017-12-06T13:45:11.623Z,100934.75
2017-12-06T13:47:37.575Z,100936.03
2017-12-06T13:50:03.518Z,100932.14
2017-12-06T13:52:29.503Z,100941.95
2017-12-06T13:54:55.465Z,100940.94
2017-12-06T13:57:21.394Z,100944.23
2017-12-06T13:59:47.326Z,100943.00
2017-12-06T14:02:13.263Z,100948.24
2017-12-06T14:04:39.196Z,100942.42
2017-12-06T14:07:05.145Z,100942.21
2017-12-06T14:09:31.090Z,100943.75
2017-12-06T14:11:57.018Z,100945.10
2017-12-06T14:14:22.951Z,100939.64
2017-12-06T14:16:48.876Z,100948.09
2017-12-06T14:19:14.839Z,100939.17
2017-12-06T14:21:40.776Z,100944.36
2017-12-06T14:24:06.720Z,100942.55
2017-12-06T14:26:32.668Z,100937.69
2017-12-06T14:28:58.630Z,100949.48
2017-12-06T14:31:24.652Z,100946.77
2017-12-06T14:33:50.600Z,100952.09
2017-12-06T14:36:16.596Z,100952.28
2017-12-06T14:38:42.557Z,100952.58
2017-12-06T14:41:08.512Z,100952.19
2017-12-06T14:43:34.466Z,100959.30
2017-12-06T14:46:00.394Z,100958.31
2017-12-06T14:48:26.396Z,100959.91
2017-12-06T14:50:52.322Z,100952.23
2017-12-06T14:53:18.267Z,100969.30
2017-12-06T14:55:44.202Z,100964.33
2017-12-06T14:58:10.150Z,100965.72
2017-12-06T15:00:36.088Z,100963.33
2017-12-06T15:03:02.025Z,100963.69
2017-12-06T15:05:27.968Z,100961.47
2017-12-06T15:07:54.062Z,100955.91
2017-12-06T15:10:20.121Z,100957.14
2017-12-06T15:12:46.138Z,100961.49
2017-12-06T15:15:12.109Z,100958.34
2017-12-06T15:17:38.107Z,100957.24
2017-12-06T15:20:04.190Z,100957.36
2017-12-06T15:22:30.206Z,100950.70
2017-12-06T15:24:56.142Z,100951.91
2017-12-06T15:27:22.088Z,100946.23
2017-12-06T15:29:48.025Z,100948.41
2017-12-06T15:32:13.959Z,100946.90
2017-12-06T15:34:39.880Z,100947.37
2017-12-06T15:37:05.805Z,100944.50
2017-12-06T15:39:31.744Z,100943.27
2017-12-06T15:41:57.675Z,100940.23
2017-12-06T15:44:23.615Z,100950.44
2017-12-06T15:46:49.538Z,100941.94
2017-12-06T15:49:15.476Z,100947.14
2017-12-06T15:51:41.399Z,100941.64
2017-12-06T15:54:07.327Z,100938.77
2017-12-06T15:56:33.285Z,100942.86
2017-12-06T15:58:59.230Z,100943.11
2017-12-06T16:01:25.154Z,100939.41
2017-12-06T16:03:51.073Z,100940.75
2017-12-06T16:06:17.029Z,100934.91
2017-12-06T16:08:42.988Z,100935.13
2017-12-06T16:11:08.971Z,100931.09
2017-12-06T16:13:34.974Z,100929.15
2017-12-06T16:16:00.917Z,100935.44
2017-12-06T16:18:26.901Z,100930.11
2017-12-06T16:20:52.959Z,100936.49
2017-12-06T16:23:18.901Z,100931.92
2017-12-06T16:25:44.834Z,100923.95
2017-12-06T16:28:10.778Z,100926.28
2017-12-06T16:30:36.716Z,100932.40
2017-12-06T16:33:02.641Z,100934.74
2017-12-06T16:35:28.603Z,100931.44
2017-12-06T16:37:54.539Z,100927.28
2017-12-06T16:40:20.707Z,100927.59
2017-12-06T16:42:46.651Z,100930.14
2017-12-06T16:45:12.577Z,100929.10
2017-12-06T16:47:38.521Z,100922.59
2017-12-06T16:50:04.463Z,100921.55
2017-12-06T16:52:30.448Z,100925.48
2017-12-06T16:54:56.375Z,100930.99
2017-12-06T16:57:22.319Z,100929.06
2017-12-06T16:59:48.254Z,100931.98
2017-12-06T17:02:14.203Z,100923.42
2017-12-06T17:04:40.179Z,100917.48
2017-12-06T17:07:06.105Z,100935.53
2017-12-06T17:09:32.071Z,100923.81
2017-12-06T17:11:58.007Z,100924.68
2017-12-06T17:14:24.015Z,100924.94
2017-12-06T17:16:49.943Z,100936.14
2017-12-06T17:19:15.893Z,100928.37
2017-12-06T17:21:41.841Z,100919.91
2017-12-06T17:24:07.793Z,100925.33
2017-12-06T17:26:33.732Z,100925.29
2017-12-06T17:28:59.671Z,100923.27
2017-12-06T17:31:25.595Z,100919.70
2017-12-06T17:33:51.703Z,100924.11
2017-12-06T17:36:17.655Z,100920.66
2017-12-06T17:38:43.605Z,100923.42
2017-12-06T17:41:09.597Z,100922.64
2017-12-06T17:43:35.545Z,100920.48
2017-12-06T17:46:01.475Z,100917.96
2017-12-06T17:48:27.429Z,100923.52
2017-12-06T17:50:53.395Z,100914.16
2017-12-06T17:53:19.361Z,100906.03
2017-12-06T17:55:45.669Z,100910.94
2017-12-06T17:58:11.657Z,100911.20
2017-12-06T18:00:37.599Z,100914.88
2017-12-06T18:03:03.555Z,100920.82
2017-12-06T18:05:29.497Z,100912.58
2017-12-06T18:07:55.435Z,100921.21
2017-12-06T18:10:21.379Z,100903.16
2017-12-06T18:12:47.321Z,100912.37
2017-12-06T18:15:13.273Z,100908.23
2017-12-06T18:17:39.205Z,100915.22
2017-12-06T18:20:05.158Z,100916.27
2017-12-06T18:22:31.110Z,100911.02
2017-12-06T18:24:57.051Z,100909.25
2017-12-06T18:27:22.999Z,100907.13
2017-12-06T18:29:48.929Z,100909.81
2017-12-06T18:32:14.877Z,100903.70
2017-12-06T18:34:40.819Z,100906.41
2017-12-06T18:37:06.775Z,100900.61
2017-12-06T18:39:32.764Z,100906.41
2017-12-06T18:41:58.739Z,100905.82
2017-12-06T18:44:24.709Z,100893.23
2017-12-06T18:46:50.639Z,100887.30
2017-12-06T18:49:16.611Z,100875.67
2017-12-06T18:51:42.551Z,100880.63
2017-12-06T18:54:08.547Z,100874.98
2017-12-06T18:56:34.495Z,100883.70
2017-12-06T18:59:00.427Z,100890.38
2017-12-06T19:01:26.425Z,100886.38
2017-12-06T19:03:52.452Z,100885.67
2017-12-06T19:06:18.417Z,100887.28
2017-12-06T19:08:44.387Z,100882.09
2017-12-06T19:11:10.341Z,100889.25
2017-12-06T19:13:36.291Z,100890.90
2017-12-06T19:16:02.231Z,100879.49
2017-12-06T19:18:28.187Z,100886.94
2017-12-06T19:20:54.148Z,100885.74
2017-12-06T19:23:20.095Z,100884.09
2017-12-06T19:25:46.067Z,100886.56
2017-12-06T19:28:12.000Z,100891.81
2017-12-06T19:30:38.003Z,100891.20
2017-12-06T19:33:04.005Z,100897.33
2017-12-06T19:35:29.975Z,100897.56
2017-12-06T19:37:55.933Z,100896.27
2017-12-06T19:40:21.881Z,100893.98
2017-12-06T19:42:47.841Z,100891.69
2017-12-06T19:45:13.788Z,100893.58
2017-12-06T19:47:39.779Z,100901.06
2017-12-06T19:50:05.735Z,100895.17
2017-12-06T19:52:31.727Z,100899.31
2017-12-06T19:54:57.707Z,100896.48
2017-12-06T19:57:23.663Z,100891.80
2017-12-06T19:59:49.621Z,100895.91
2017-12-06T20:02:15.579Z,100900.07
2017-12-06T20:04:41.521Z,100895.67
2017-12-06T20:07:07.524Z,100895.42
2017-12-06T20:09:33.493Z,100893.61
2017-12-06T20:11:59.431Z,100894.09
2017-12-06T20:14:25.380Z,100895.56
2017-12-06T20:16:51.349Z,100892.61
2017-12-06T20:19:17.293Z,100892.97
2017-12-06T20:21:44.289Z,100895.01
2017-12-06T20:24:10.309Z,100891.92
2017-12-06T20:26:36.250Z,100899.60
2017-12-06T20:29:02.196Z,100895.05
2017-12-06T20:31:28.143Z,100901.13
2017-12-06T20:33:54.119Z,100890.93
2017-12-06T20:36:20.059Z,100894.66
2017-12-06T20:38:46.062Z,100894.84
2017-12-06T20:41:12.097Z,100889.97
2017-12-06T20:43:38.027Z,100890.62
2017-12-06T20:46:03.970Z,100893.88
2017-12-06T20:48:29.997Z,100887.81
2017-12-06T20:50:55.959Z,100881.69
2017-12-06T20:53:21.899Z,100881.16
2017-12-06T20:55:47.915Z,100881.53
2017-12-06T20:58:13.959Z,100878.17
2017-12-06T21:00:39.915Z,100880.22
2017-12-06T21:03:05.894Z,100868.70
2017-12-06T21:05:31.857Z,100869.92
2017-12-06T21:07:58.251Z,100868.48
2017-12-06T21:10:24.228Z,100868.11
2017-12-06T21:12:50.155Z,100862.91
2017-12-06T21:15:16.097Z,100871.47
2017-12-06T21:17:42.038Z,100862.73
2017-12-06T21:20:08.105Z,100859.00
2017-12-06T21:22:34.053Z,100858.84
2017-12-06T21:25:00.030Z,100860.32
2017-12-06T21:27:26.043Z,100852.55
2017-12-06T21:29:52.085Z,100849.20
2017-12-06T21:32:18.147Z,100844.95
2017-12-06T21:34:44.126Z,100840.80
2017-12-06T21:37:10.211Z,100846.70
2017-12-06T21:39:36.147Z,100850.28
2017-12-06T21:42:02.098Z,100841.48
2017-12-06T21:44:28.039Z,100844.66
2017-12-06T21:46:53.969Z,100843.73
2017-12-06T21:49:19.921Z,100844.55
2017-12-06T21:51:45.893Z,100840.30
2017-12-06T21:54:11.844Z,100843.17
2017-12-06T21:56:37.777Z,100834.28
2017-12-06T21:59:03.703Z,100833.77
2017-12-06T22:01:29.671Z,100840.16
2017-12-06T22:03:55.593Z,100833.36
2017-12-06T22:06:21.589Z,100832.95
2017-12-06T22:08:47.508Z,100836.18
2017-12-06T22:11:13.458Z,100830.55
2017-12-06T22:13:39.463Z,100828.57
2017-12-06T22:16:05.364Z,100826.34
2017-12-06T22:18:31.311Z,100826.97
2017-12-06T22:20:57.245Z,100820.13
2017-12-06T22:23:23.220Z,100818.75
2017-12-06T22:25:49.215Z,100824.39
2017-12-06T22:28:15.159Z,100820.44
2017-12-06T22:30:41.091Z,100825.29
2017-12-06T22:33:07.033Z,100823.84
2017-12-06T22:35:32.984Z,100824.66
2017-12-06T22:37:58.907Z,100824.05
2017-12-06T22:40:24.835Z,100818.00
2017-12-06T22:42:50.769Z,100817.83
2017-12-06T22:45:16.720Z,100818.59
2017-12-06T22:47:42.647Z,100817.60
2017-12-06T22:50:08.603Z,100815.09
2017-12-06T22:52:34.535Z,100819.47
2017-12-06T22:55:00.463Z,100808.45
2017-12-06T22:57:26.415Z,100813.19
2017-12-06T22:59:52.345Z,100811.09
2017-12-06T23:02:18.315Z,100811.29
2017-12-06T23:04:44.253Z,100804.45
2017-12-06T23:07:10.201Z,100804.11
2017-12-06T23:09:36.258Z,100802.05
2017-12-06T23:12:02.213Z,100792.42
2017-12-06T23:14:28.153Z,100793.29
2017-12-06T23:16:54.088Z,100783.26
2017-12-06T23:19:20.039Z,100792.81
2017-12-06T23:21:45.983Z,100795.25
2017-12-06T23:24:11.937Z,100791.51
2017-12-06T23:26:37.858Z,100786.20
2017-12-06T23:29:03.793Z,100781.14
2017-12-06T23:31:29.765Z,100781.84
2017-12-06T23:33:55.703Z,100781.92
2017-12-06T23:36:21.627Z,100778.62
2017-12-06T23:38:47.556Z,100777.36
2017-12-06T23:41:13.502Z,100771.94
2017-12-06T23:43:39.454Z,100775.59
2017-12-06T23:46:05.381Z,100770.13
2017-12-06T23:48:31.332Z,100763.91
2017-12-06T23:50:57.347Z,100762.81
2017-12-06T23:53:23.389Z,100754.52
2017-12-06T23:55:49.314Z,100749.95
2017-12-06T23:58:15.256Z,100750.82
